sensor_id;sensor_type;location;lat;lon;timestamp;P1;durP1;ratioP1;P2;durP2;ratioP2
30553;SDS011;17335;50.720;7.452;2024-01-16T00:01:01;18.90;;;5.78;;
30553;SDS011;17335;50.720;7.452;2024-01-16T00:03:27;15.50;;;5.65;;
30553;SDS011;17335;50.720;7.452;2024-01-16T00:05:54;12.07;;;5.70;;
30553;SDS011;17335;50.720;7.452;2024-01-16T00:08:21;12.05;;;5.80;;
30553;SDS011;17335;50.720;7.452;2024-01-16T00:10:47;15.95;;;6.93;;
30553;SDS011;17335;50.720;7.452;2024-01-16T00:13:14;18.10;;;6.65;;
30553;SDS011;17335;50.720;7.452;2024-01-16T00:15:40;13.43;;;6.22;;
30553;SDS011;17335;50.720;7.452;2024-01-16T00:18:10;21.17;;;6.78;;
30553;SDS011;17335;50.720;7.452;2024-01-16T00:20:36;12.98;;;6.45;;
30553;SDS011;17335;50.720;7.452;2024-01-16T00:23:03;17.83;;;7.07;;
30553;SDS011;17335;50.720;7.452;2024-01-16T00:25:30;16.40;;;6.28;;
30553;SDS011;17335;50.720;7.452;2024-01-16T00:27:56;10.63;;;6.15;;
30553;SDS011;17335;50.720;7.452;2024-01-16T00:30:23;14.15;;;6.43;;
30553;SDS011;17335;50.720;7.452;2024-01-16T00:32:50;14.55;;;6.13;;
30553;SDS011;17335;50.720;7.452;2024-01-16T00:35:16;11.98;;;6.00;;
30553;SDS011;17335;50.720;7.452;2024-01-16T00:37:43;15.88;;;5.70;;
30553;SDS011;17335;50.720;7.452;2024-01-16T00:40:10;15.18;;;6.55;;
30553;SDS011;17335;50.720;7.452;2024-01-16T00:42:36;14.05;;;6.38;;
30553;SDS011;17335;50.720;7.452;2024-01-16T00:45:03;27.30;;;6.43;;
30553;SDS011;17335;50.720;7.452;2024-01-16T00:47:30;19.55;;;6.30;;
30553;SDS011;17335;50.720;7.452;2024-01-16T00:49:57;14.90;;;6.93;;
30553;SDS011;17335;50.720;7.452;2024-01-16T00:52:26;23.67;;;7.47;;
30553;SDS011;17335;50.720;7.452;2024-01-16T00:54:53;16.02;;;7.07;;
30553;SDS011;17335;50.720;7.452;2024-01-16T00:57:19;12.20;;;6.15;;
30553;SDS011;17335;50.720;7.452;2024-01-16T00:59:46;13.20;;;5.97;;
30553;SDS011;17335;50.720;7.452;2024-01-16T01:02:13;14.50;;;6.70;;
30553;SDS011;17335;50.720;7.452;2024-01-16T01:04:40;11.95;;;5.75;;
30553;SDS011;17335;50.720;7.452;2024-01-16T01:07:12;10.63;;;5.95;;
30553;SDS011;17335;50.720;7.452;2024-01-16T01:09:39;13.32;;;6.22;;
30553;SDS011;17335;50.720;7.452;2024-01-16T01:12:06;12.52;;;5.93;;
30553;SDS011;17335;50.720;7.452;2024-01-16T01:14:33;20.17;;;6.80;;
30553;SDS011;17335;50.720;7.452;2024-01-16T01:16:59;11.68;;;5.65;;
30553;SDS011;17335;50.720;7.452;2024-01-16T01:19:26;15.13;;;6.63;;
30553;SDS011;17335;50.720;7.452;2024-01-16T01:21:52;13.02;;;5.55;;
30553;SDS011;17335;50.720;7.452;2024-01-16T01:24:19;18.83;;;7.40;;
30553;SDS011;17335;50.720;7.452;2024-01-16T01:26:45;16.13;;;5.85;;
30553;SDS011;17335;50.720;7.452;2024-01-16T01:29:12;14.57;;;6.13;;
30553;SDS011;17335;50.720;7.452;2024-01-16T01:31:38;22.92;;;6.13;;
30553;SDS011;17335;50.720;7.452;2024-01-16T01:34:05;16.08;;;6.10;;
30553;SDS011;17335;50.720;7.452;2024-01-16T01:36:31;11.13;;;6.05;;
30553;SDS011;17335;50.720;7.452;2024-01-16T01:38:58;15.65;;;6.38;;
30553;SDS011;17335;50.720;7.452;2024-01-16T01:41:25;14.75;;;5.65;;
30553;SDS011;17335;50.720;7.452;2024-01-16T01:43:51;16.83;;;5.60;;
30553;SDS011;17335;50.720;7.452;2024-01-16T01:46:18;11.65;;;6.13;;
30553;SDS011;17335;50.720;7.452;2024-01-16T01:48:46;25.77;;;6.07;;
30553;SDS011;17335;50.720;7.452;2024-01-16T01:51:14;11.50;;;5.97;;
30553;SDS011;17335;50.720;7.452;2024-01-16T01:53:44;13.63;;;6.55;;
30553;SDS011;17335;50.720;7.452;2024-01-16T01:56:19;27.55;;;6.30;;
30553;SDS011;17335;50.720;7.452;2024-01-16T01:58:47;18.77;;;6.97;;
30553;SDS011;17335;50.720;7.452;2024-01-16T02:01:17;17.95;;;6.20;;
30553;SDS011;17335;50.720;7.452;2024-01-16T02:03:47;18.42;;;6.97;;
30553;SDS011;17335;50.720;7.452;2024-01-16T02:06:16;10.95;;;5.70;;
30553;SDS011;17335;50.720;7.452;2024-01-16T02:08:44;15.15;;;6.00;;
30553;SDS011;17335;50.720;7.452;2024-01-16T02:11:10;14.70;;;7.03;;
30553;SDS011;17335;50.720;7.452;2024-01-16T02:13:37;10.85;;;5.40;;
30553;SDS011;17335;50.720;7.452;2024-01-16T02:16:04;16.88;;;5.55;;
30553;SDS011;17335;50.720;7.452;2024-01-16T02:18:32;10.18;;;5.43;;
30553;SDS011;17335;50.720;7.452;2024-01-16T02:21:01;9.52;;;5.30;;
30553;SDS011;17335;50.720;7.452;2024-01-16T02:23:32;11.00;;;5.30;;
30553;SDS011;17335;50.720;7.452;2024-01-16T02:25:59;16.02;;;5.53;;
30553;SDS011;17335;50.720;7.452;2024-01-16T02:28:27;13.38;;;6.38;;
30553;SDS011;17335;50.720;7.452;2024-01-16T02:30:54;14.90;;;5.90;;
30553;SDS011;17335;50.720;7.452;2024-01-16T02:33:20;15.55;;;5.95;;
30553;SDS011;17335;50.720;7.452;2024-01-16T02:35:47;12.27;;;6.00;;
30553;SDS011;17335;50.720;7.452;2024-01-16T02:38:13;11.98;;;5.80;;
30553;SDS011;17335;50.720;7.452;2024-01-16T02:40:40;12.27;;;6.43;;
30553;SDS011;17335;50.720;7.452;2024-01-16T02:43:07;14.75;;;5.63;;
30553;SDS011;17335;50.720;7.452;2024-01-16T02:45:33;13.30;;;5.45;;
30553;SDS011;17335;50.720;7.452;2024-01-16T02:48:00;14.00;;;5.75;;
30553;SDS011;17335;50.720;7.452;2024-01-16T02:50:27;13.35;;;5.25;;
30553;SDS011;17335;50.720;7.452;2024-01-16T02:52:54;11.05;;;5.93;;
30553;SDS011;17335;50.720;7.452;2024-01-16T02:55:21;17.38;;;5.70;;
30553;SDS011;17335;50.720;7.452;2024-01-16T02:57:47;14.63;;;5.32;;
30553;SDS011;17335;50.720;7.452;2024-01-16T03:00:14;10.77;;;5.70;;
30553;SDS011;17335;50.720;7.452;2024-01-16T03:02:40;16.83;;;5.82;;
30553;SDS011;17335;50.720;7.452;2024-01-16T03:05:07;18.65;;;6.22;;
30553;SDS011;17335;50.720;7.452;2024-01-16T03:07:34;15.40;;;5.50;;
30553;SDS011;17335;50.720;7.452;2024-01-16T03:10:00;12.90;;;5.97;;
30553;SDS011;17335;50.720;7.452;2024-01-16T03:12:27;13.75;;;7.03;;
30553;SDS011;17335;50.720;7.452;2024-01-16T03:14:53;14.52;;;5.70;;
30553;SDS011;17335;50.720;7.452;2024-01-16T03:17:20;15.07;;;6.10;;
30553;SDS011;17335;50.720;7.452;2024-01-16T03:19:47;12.05;;;5.97;;
30553;SDS011;17335;50.720;7.452;2024-01-16T03:22:13;13.88;;;6.05;;
30553;SDS011;17335;50.720;7.452;2024-01-16T03:24:39;11.52;;;5.35;;
30553;SDS011;17335;50.720;7.452;2024-01-16T03:27:06;21.38;;;7.15;;
30553;SDS011;17335;50.720;7.452;2024-01-16T03:29:33;15.02;;;6.82;;
30553;SDS011;17335;50.720;7.452;2024-01-16T03:32:00;16.85;;;6.95;;
30553;SDS011;17335;50.720;7.452;2024-01-16T03:34:27;14.55;;;6.50;;
30553;SDS011;17335;50.720;7.452;2024-01-16T03:36:53;30.33;;;6.25;;
30553;SDS011;17335;50.720;7.452;2024-01-16T03:39:20;16.15;;;6.13;;
30553;SDS011;17335;50.720;7.452;2024-01-16T03:41:46;13.00;;;5.95;;
30553;SDS011;17335;50.720;7.452;2024-01-16T03:44:13;12.32;;;5.90;;
30553;SDS011;17335;50.720;7.452;2024-01-16T03:46:39;11.30;;;5.75;;
30553;SDS011;17335;50.720;7.452;2024-01-16T03:49:06;19.45;;;6.55;;
30553;SDS011;17335;50.720;7.452;2024-01-16T03:51:32;24.33;;;6.43;;
30553;SDS011;17335;50.720;7.452;2024-01-16T03:53:59;13.60;;;6.05;;
30553;SDS011;17335;50.720;7.452;2024-01-16T03:56:25;17.30;;;7.00;;
30553;SDS011;17335;50.720;7.452;2024-01-16T03:58:52;18.13;;;6.50;;
30553;SDS011;17335;50.720;7.452;2024-01-16T04:01:20;16.95;;;6.55;;
30553;SDS011;17335;50.720;7.452;2024-01-16T04:03:56;17.05;;;6.60;;
30553;SDS011;17335;50.720;7.452;2024-01-16T04:06:22;12.63;;;5.93;;
30553;SDS011;17335;50.720;7.452;2024-01-16T04:08:49;16.35;;;6.97;;
30553;SDS011;17335;50.720;7.452;2024-01-16T04:11:15;12.30;;;6.30;;
30553;SDS011;17335;50.720;7.452;2024-01-16T04:13:42;12.50;;;5.95;;
30553;SDS011;17335;50.720;7.452;2024-01-16T04:16:08;14.93;;;6.63;;
30553;SDS011;17335;50.720;7.452;2024-01-16T04:18:35;13.93;;;6.47;;
30553;SDS011;17335;50.720;7.452;2024-01-16T04:21:04;14.25;;;6.40;;
30553;SDS011;17335;50.720;7.452;2024-01-16T04:23:30;16.25;;;6.25;;
30553;SDS011;17335;50.720;7.452;2024-01-16T04:25:57;14.88;;;5.82;;
30553;SDS011;17335;50.720;7.452;2024-01-16T04:28:23;16.58;;;7.32;;
30553;SDS011;17335;50.720;7.452;2024-01-16T04:30:50;17.73;;;6.05;;
30553;SDS011;17335;50.720;7.452;2024-01-16T04:33:17;12.60;;;6.20;;
30553;SDS011;17335;50.720;7.452;2024-01-16T04:35:44;15.73;;;6.05;;
30553;SDS011;17335;50.720;7.452;2024-01-16T04:38:11;10.07;;;6.22;;
30553;SDS011;17335;50.720;7.452;2024-01-16T04:40:37;14.20;;;6.05;;
30553;SDS011;17335;50.720;7.452;2024-01-16T04:43:04;16.73;;;7.03;;
30553;SDS011;17335;50.720;7.452;2024-01-16T04:45:31;10.65;;;5.60;;
30553;SDS011;17335;50.720;7.452;2024-01-16T04:47:57;19.77;;;6.25;;
30553;SDS011;17335;50.720;7.452;2024-01-16T04:50:24;13.43;;;5.47;;
30553;SDS011;17335;50.720;7.452;2024-01-16T04:52:58;12.70;;;5.55;;
30553;SDS011;17335;50.720;7.452;2024-01-16T04:55:28;12.60;;;6.13;;
30553;SDS011;17335;50.720;7.452;2024-01-16T04:57:55;12.45;;;6.18;;
30553;SDS011;17335;50.720;7.452;2024-01-16T05:00:22;12.43;;;6.07;;
30553;SDS011;17335;50.720;7.452;2024-01-16T05:02:49;12.80;;;6.32;;
30553;SDS011;17335;50.720;7.452;2024-01-16T05:05:17;14.52;;;6.05;;
30553;SDS011;17335;50.720;7.452;2024-01-16T05:07:44;11.88;;;6.22;;
30553;SDS011;17335;50.720;7.452;2024-01-16T05:10:11;12.27;;;5.38;;
30553;SDS011;17335;50.720;7.452;2024-01-16T05:12:41;13.90;;;6.20;;
30553;SDS011;17335;50.720;7.452;2024-01-16T05:15:08;11.95;;;5.82;;
30553;SDS011;17335;50.720;7.452;2024-01-16T05:17:37;11.95;;;5.25;;
30553;SDS011;17335;50.720;7.452;2024-01-16T05:20:07;9.68;;;5.30;;
30553;SDS011;17335;50.720;7.452;2024-01-16T05:22:34;9.52;;;4.32;;
30553;SDS011;17335;50.720;7.452;2024-01-16T05:25:01;12.85;;;5.20;;
30553;SDS011;17335;50.720;7.452;2024-01-16T05:27:28;12.30;;;5.05;;
30553;SDS011;17335;50.720;7.452;2024-01-16T05:29:54;10.82;;;4.40;;
30553;SDS011;17335;50.720;7.452;2024-01-16T05:32:21;17.02;;;5.32;;
30553;SDS011;17335;50.720;7.452;2024-01-16T05:34:48;11.43;;;4.88;;
30553;SDS011;17335;50.720;7.452;2024-01-16T05:37:14;11.60;;;5.05;;
30553;SDS011;17335;50.720;7.452;2024-01-16T05:39:41;10.57;;;5.18;;
30553;SDS011;17335;50.720;7.452;2024-01-16T05:42:07;8.38;;;4.30;;
30553;SDS011;17335;50.720;7.452;2024-01-16T05:44:33;12.45;;;4.75;;
30553;SDS011;17335;50.720;7.452;2024-01-16T05:47:00;12.57;;;4.43;;
30553;SDS011;17335;50.720;7.452;2024-01-16T05:49:27;9.05;;;4.65;;
30553;SDS011;17335;50.720;7.452;2024-01-16T05:51:53;12.15;;;4.85;;
30553;SDS011;17335;50.720;7.452;2024-01-16T05:54:20;11.23;;;5.03;;
30553;SDS011;17335;50.720;7.452;2024-01-16T05:56:46;19.17;;;5.03;;
30553;SDS011;17335;50.720;7.452;2024-01-16T05:59:13;12.90;;;5.45;;
30553;SDS011;17335;50.720;7.452;2024-01-16T06:01:39;11.43;;;4.57;;
30553;SDS011;17335;50.720;7.452;2024-01-16T06:04:05;11.13;;;4.70;;
30553;SDS011;17335;50.720;7.452;2024-01-16T06:06:32;12.27;;;4.43;;
30553;SDS011;17335;50.720;7.452;2024-01-16T06:08:59;15.38;;;4.38;;
30553;SDS011;17335;50.720;7.452;2024-01-16T06:11:34;11.52;;;5.07;;
30553;SDS011;17335;50.720;7.452;2024-01-16T06:14:04;8.73;;;4.80;;
30553;SDS011;17335;50.720;7.452;2024-01-16T06:16:30;10.50;;;4.20;;
30553;SDS011;17335;50.720;7.452;2024-01-16T06:18:57;11.75;;;5.30;;
30553;SDS011;17335;50.720;7.452;2024-01-16T06:21:24;11.05;;;4.82;;
30553;SDS011;17335;50.720;7.452;2024-01-16T06:23:50;14.65;;;5.88;;
30553;SDS011;17335;50.720;7.452;2024-01-16T06:26:17;12.15;;;5.20;;
30553;SDS011;17335;50.720;7.452;2024-01-16T06:28:44;15.18;;;4.85;;
30553;SDS011;17335;50.720;7.452;2024-01-16T06:31:10;12.57;;;4.63;;
30553;SDS011;17335;50.720;7.452;2024-01-16T06:33:38;9.45;;;4.40;;
30553;SDS011;17335;50.720;7.452;2024-01-16T06:36:04;10.57;;;4.90;;
30553;SDS011;17335;50.720;7.452;2024-01-16T06:38:31;13.77;;;6.03;;
30553;SDS011;17335;50.720;7.452;2024-01-16T06:40:58;12.73;;;4.82;;
30553;SDS011;17335;50.720;7.452;2024-01-16T06:43:24;11.13;;;4.80;;
30553;SDS011;17335;50.720;7.452;2024-01-16T06:45:51;9.95;;;4.28;;
30553;SDS011;17335;50.720;7.452;2024-01-16T06:48:17;9.55;;;4.28;;
30553;SDS011;17335;50.720;7.452;2024-01-16T06:50:44;10.93;;;4.78;;
30553;SDS011;17335;50.720;7.452;2024-01-16T06:53:11;7.88;;;3.75;;
30553;SDS011;17335;50.720;7.452;2024-01-16T06:55:37;11.30;;;4.25;;
30553;SDS011;17335;50.720;7.452;2024-01-16T06:58:04;9.15;;;3.90;;
30553;SDS011;17335;50.720;7.452;2024-01-16T07:00:31;5.63;;;3.38;;
30553;SDS011;17335;50.720;7.452;2024-01-16T07:02:57;12.98;;;3.85;;
30553;SDS011;17335;50.720;7.452;2024-01-16T07:05:24;14.13;;;4.15;;
30553;SDS011;17335;50.720;7.452;2024-01-16T07:07:50;9.68;;;4.22;;
30553;SDS011;17335;50.720;7.452;2024-01-16T07:10:17;9.07;;;3.75;;
30553;SDS011;17335;50.720;7.452;2024-01-16T07:12:48;12.15;;;3.83;;
30553;SDS011;17335;50.720;7.452;2024-01-16T07:15:15;10.50;;;3.22;;
30553;SDS011;17335;50.720;7.452;2024-01-16T07:17:42;8.85;;;3.38;;
30553;SDS011;17335;50.720;7.452;2024-01-16T07:20:09;7.45;;;3.33;;
30553;SDS011;17335;50.720;7.452;2024-01-16T07:22:36;11.63;;;3.38;;
30553;SDS011;17335;50.720;7.452;2024-01-16T07:25:06;4.90;;;2.75;;
30553;SDS011;17335;50.720;7.452;2024-01-16T07:27:33;7.95;;;3.53;;
30553;SDS011;17335;50.720;7.452;2024-01-16T07:30:00;17.63;;;4.00;;
30553;SDS011;17335;50.720;7.452;2024-01-16T07:32:27;5.35;;;3.08;;
30553;SDS011;17335;50.720;7.452;2024-01-16T07:34:57;9.50;;;3.58;;
30553;SDS011;17335;50.720;7.452;2024-01-16T07:37:24;10.35;;;3.90;;
30553;SDS011;17335;50.720;7.452;2024-01-16T07:39:50;10.07;;;3.08;;
30553;SDS011;17335;50.720;7.452;2024-01-16T07:42:17;7.25;;;2.97;;
30553;SDS011;17335;50.720;7.452;2024-01-16T07:44:43;8.73;;;2.97;;
30553;SDS011;17335;50.720;7.452;2024-01-16T07:47:10;5.90;;;2.33;;
30553;SDS011;17335;50.720;7.452;2024-01-16T07:49:36;3.58;;;2.13;;
30553;SDS011;17335;50.720;7.452;2024-01-16T07:52:03;11.38;;;2.83;;
30553;SDS011;17335;50.720;7.452;2024-01-16T07:54:30;6.70;;;3.20;;
30553;SDS011;17335;50.720;7.452;2024-01-16T07:56:57;4.13;;;2.33;;
30553;SDS011;17335;50.720;7.452;2024-01-16T07:59:24;9.68;;;2.45;;
30553;SDS011;17335;50.720;7.452;2024-01-16T08:01:50;5.78;;;2.30;;
30553;SDS011;17335;50.720;7.452;2024-01-16T08:04:17;8.93;;;2.33;;
30553;SDS011;17335;50.720;7.452;2024-01-16T08:06:43;14.30;;;2.33;;
30553;SDS011;17335;50.720;7.452;2024-01-16T08:09:10;5.18;;;2.10;;
30553;SDS011;17335;50.720;7.452;2024-01-16T08:11:38;6.53;;;2.50;;
30553;SDS011;17335;50.720;7.452;2024-01-16T08:14:05;3.72;;;1.92;;
30553;SDS011;17335;50.720;7.452;2024-01-16T08:16:32;8.85;;;2.08;;
30553;SDS011;17335;50.720;7.452;2024-01-16T08:18:59;12.13;;;2.10;;
30553;SDS011;17335;50.720;7.452;2024-01-16T08:21:25;18.20;;;2.15;;
30553;SDS011;17335;50.720;7.452;2024-01-16T08:23:52;6.22;;;1.85;;
30553;SDS011;17335;50.720;7.452;2024-01-16T08:26:19;12.77;;;2.10;;
30553;SDS011;17335;50.720;7.452;2024-01-16T08:28:45;7.70;;;1.95;;
30553;SDS011;17335;50.720;7.452;2024-01-16T08:31:12;7.57;;;2.35;;
30553;SDS011;17335;50.720;7.452;2024-01-16T08:33:39;6.75;;;2.40;;
30553;SDS011;17335;50.720;7.452;2024-01-16T08:36:12;5.07;;;1.92;;
30553;SDS011;17335;50.720;7.452;2024-01-16T08:38:40;8.90;;;2.38;;
30553;SDS011;17335;50.720;7.452;2024-01-16T08:41:07;6.57;;;1.77;;
30553;SDS011;17335;50.720;7.452;2024-01-16T08:43:34;8.15;;;1.92;;
30553;SDS011;17335;50.720;7.452;2024-01-16T08:46:00;4.10;;;1.75;;
30553;SDS011;17335;50.720;7.452;2024-01-16T08:48:27;3.15;;;1.63;;
30553;SDS011;17335;50.720;7.452;2024-01-16T08:50:53;4.65;;;1.67;;
30553;SDS011;17335;50.720;7.452;2024-01-16T08:53:20;6.40;;;2.10;;
30553;SDS011;17335;50.720;7.452;2024-01-16T08:55:49;4.25;;;1.80;;
30553;SDS011;17335;50.720;7.452;2024-01-16T08:58:15;4.65;;;2.00;;
30553;SDS011;17335;50.720;7.452;2024-01-16T09:00:42;14.40;;;1.95;;
30553;SDS011;17335;50.720;7.452;2024-01-16T09:03:08;4.68;;;1.65;;
30553;SDS011;17335;50.720;7.452;2024-01-16T09:05:35;5.30;;;1.42;;
30553;SDS011;17335;50.720;7.452;2024-01-16T09:08:05;6.07;;;1.75;;
30553;SDS011;17335;50.720;7.452;2024-01-16T09:10:33;6.07;;;1.73;;
30553;SDS011;17335;50.720;7.452;2024-01-16T09:12:59;4.53;;;1.23;;
30553;SDS011;17335;50.720;7.452;2024-01-16T09:15:26;4.00;;;1.60;;
30553;SDS011;17335;50.720;7.452;2024-01-16T09:17:52;8.60;;;2.45;;
30553;SDS011;17335;50.720;7.452;2024-01-16T09:20:19;8.30;;;2.00;;
30553;SDS011;17335;50.720;7.452;2024-01-16T09:22:45;9.20;;;1.85;;
30553;SDS011;17335;50.720;7.452;2024-01-16T09:25:12;5.68;;;2.22;;
30553;SDS011;17335;50.720;7.452;2024-01-16T09:27:38;9.00;;;1.65;;
30553;SDS011;17335;50.720;7.452;2024-01-16T09:30:05;5.85;;;1.55;;
30553;SDS011;17335;50.720;7.452;2024-01-16T09:32:32;4.93;;;2.08;;
30553;SDS011;17335;50.720;7.452;2024-01-16T09:34:58;11.35;;;2.13;;
30553;SDS011;17335;50.720;7.452;2024-01-16T09:37:25;11.48;;;1.75;;
30553;SDS011;17335;50.720;7.452;2024-01-16T09:39:51;3.53;;;1.70;;
30553;SDS011;17335;50.720;7.452;2024-01-16T09:42:20;4.20;;;1.83;;
30553;SDS011;17335;50.720;7.452;2024-01-16T09:44:47;7.18;;;1.75;;
30553;SDS011;17335;50.720;7.452;2024-01-16T09:47:15;9.60;;;1.90;;
30553;SDS011;17335;50.720;7.452;2024-01-16T09:49:43;5.30;;;1.77;;
30553;SDS011;17335;50.720;7.452;2024-01-16T09:52:12;6.65;;;1.50;;
30553;SDS011;17335;50.720;7.452;2024-01-16T09:54:39;6.50;;;1.88;;
30553;SDS011;17335;50.720;7.452;2024-01-16T09:57:06;7.35;;;1.63;;
30553;SDS011;17335;50.720;7.452;2024-01-16T09:59:33;5.95;;;1.75;;
30553;SDS011;17335;50.720;7.452;2024-01-16T10:02:02;5.05;;;1.88;;
30553;SDS011;17335;50.720;7.452;2024-01-16T10:04:33;5.63;;;1.85;;
30553;SDS011;17335;50.720;7.452;2024-01-16T10:07:01;9.23;;;1.90;;
30553;SDS011;17335;50.720;7.452;2024-01-16T10:09:28;5.63;;;2.78;;
30553;SDS011;17335;50.720;7.452;2024-01-16T10:11:55;6.90;;;1.90;;
30553;SDS011;17335;50.720;7.452;2024-01-16T10:14:22;4.55;;;1.50;;
30553;SDS011;17335;50.720;7.452;2024-01-16T10:17:03;6.20;;;1.67;;
30553;SDS011;17335;50.720;7.452;2024-01-16T10:19:53;10.82;;;2.20;;
30553;SDS011;17335;50.720;7.452;2024-01-16T10:22:22;4.80;;;1.60;;
30553;SDS011;17335;50.720;7.452;2024-01-16T10:25:03;6.18;;;1.75;;
30553;SDS011;17335;50.720;7.452;2024-01-16T10:27:35;8.48;;;1.85;;
30553;SDS011;17335;50.720;7.452;2024-01-16T10:30:02;3.47;;;1.75;;
30553;SDS011;17335;50.720;7.452;2024-01-16T10:32:34;7.35;;;1.85;;
30553;SDS011;17335;50.720;7.452;2024-01-16T10:35:05;3.30;;;1.90;;
30553;SDS011;17335;50.720;7.452;2024-01-16T10:37:41;7.45;;;2.10;;
30553;SDS011;17335;50.720;7.452;2024-01-16T10:40:15;8.80;;;1.73;;
30553;SDS011;17335;50.720;7.452;2024-01-16T10:42:43;6.10;;;2.05;;
30553;SDS011;17335;50.720;7.452;2024-01-16T10:45:15;3.78;;;1.60;;
30553;SDS011;17335;50.720;7.452;2024-01-16T10:47:49;11.32;;;2.08;;
30553;SDS011;17335;50.720;7.452;2024-01-16T10:50:26;7.63;;;1.92;;
30553;SDS011;17335;50.720;7.452;2024-01-16T10:52:53;5.88;;;1.77;;
30553;SDS011;17335;50.720;7.452;2024-01-16T10:55:24;10.38;;;2.20;;
30553;SDS011;17335;50.720;7.452;2024-01-16T10:57:51;6.13;;;2.30;;
30553;SDS011;17335;50.720;7.452;2024-01-16T11:00:18;5.78;;;1.80;;
30553;SDS011;17335;50.720;7.452;2024-01-16T11:03:01;10.00;;;1.92;;
30553;SDS011;17335;50.720;7.452;2024-01-16T11:05:32;13.35;;;2.85;;
30553;SDS011;17335;50.720;7.452;2024-01-16T11:08:00;5.88;;;1.95;;
30553;SDS011;17335;50.720;7.452;2024-01-16T11:10:32;4.13;;;1.90;;
30553;SDS011;17335;50.720;7.452;2024-01-16T11:13:02;15.70;;;1.95;;
30553;SDS011;17335;50.720;7.452;2024-01-16T11:15:31;7.25;;;2.20;;
30553;SDS011;17335;50.720;7.452;2024-01-16T11:17:59;9.45;;;2.13;;
30553;SDS011;17335;50.720;7.452;2024-01-16T11:20:26;9.02;;;2.20;;
30553;SDS011;17335;50.720;7.452;2024-01-16T11:23:13;4.78;;;1.70;;
30553;SDS011;17335;50.720;7.452;2024-01-16T11:25:40;4.65;;;1.60;;
30553;SDS011;17335;50.720;7.452;2024-01-16T11:28:08;4.30;;;1.65;;
30553;SDS011;17335;50.720;7.452;2024-01-16T11:30:36;2.55;;;1.48;;
30553;SDS011;17335;50.720;7.452;2024-01-16T11:33:03;4.97;;;1.92;;
30553;SDS011;17335;50.720;7.452;2024-01-16T11:38:04;5.35;;;1.70;;
30553;SDS011;17335;50.720;7.452;2024-01-16T11:40:32;7.22;;;1.92;;
30553;SDS011;17335;50.720;7.452;2024-01-16T11:42:59;3.85;;;1.60;;
30553;SDS011;17335;50.720;7.452;2024-01-16T11:46:06;5.25;;;1.90;;
30553;SDS011;17335;50.720;7.452;2024-01-16T11:48:34;3.90;;;1.63;;
30553;SDS011;17335;50.720;7.452;2024-01-16T11:51:01;4.57;;;1.95;;
30553;SDS011;17335;50.720;7.452;2024-01-16T11:53:51;21.05;;;2.53;;
30553;SDS011;17335;50.720;7.452;2024-01-16T11:56:34;6.20;;;2.38;;
30553;SDS011;17335;50.720;7.452;2024-01-16T12:02:00;10.25;;;2.28;;
30553;SDS011;17335;50.720;7.452;2024-01-16T12:04:31;3.53;;;1.77;;
30553;SDS011;17335;50.720;7.452;2024-01-16T12:06:58;3.70;;;2.47;;
30553;SDS011;17335;50.720;7.452;2024-01-16T12:09:27;9.68;;;1.98;;
30553;SDS011;17335;50.720;7.452;2024-01-16T12:11:58;7.57;;;1.88;;
30553;SDS011;17335;50.720;7.452;2024-01-16T12:14:27;5.70;;;1.90;;
30553;SDS011;17335;50.720;7.452;2024-01-16T12:19:38;4.88;;;1.83;;
30553;SDS011;17335;50.720;7.452;2024-01-16T12:22:13;7.80;;;2.05;;
30553;SDS011;17335;50.720;7.452;2024-01-16T12:24:41;4.10;;;2.10;;
30553;SDS011;17335;50.720;7.452;2024-01-16T12:27:07;4.40;;;2.05;;
30553;SDS011;17335;50.720;7.452;2024-01-16T12:29:35;5.13;;;1.45;;
30553;SDS011;17335;50.720;7.452;2024-01-16T12:32:09;9.90;;;2.05;;
30553;SDS011;17335;50.720;7.452;2024-01-16T12:34:46;3.95;;;2.33;;
30553;SDS011;17335;50.720;7.452;2024-01-16T12:37:15;4.72;;;1.63;;
30553;SDS011;17335;50.720;7.452;2024-01-16T12:39:41;5.15;;;2.25;;
30553;SDS011;17335;50.720;7.452;2024-01-16T12:42:08;11.07;;;1.98;;
30553;SDS011;17335;50.720;7.452;2024-01-16T12:44:36;5.28;;;1.63;;
30553;SDS011;17335;50.720;7.452;2024-01-16T12:47:02;6.20;;;2.45;;
30553;SDS011;17335;50.720;7.452;2024-01-16T12:49:29;6.60;;;2.05;;
30553;SDS011;17335;50.720;7.452;2024-01-16T12:54:44;7.55;;;2.17;;
30553;SDS011;17335;50.720;7.452;2024-01-16T12:57:16;6.30;;;2.15;;
30553;SDS011;17335;50.720;7.452;2024-01-16T12:59:43;7.15;;;2.53;;
30553;SDS011;17335;50.720;7.452;2024-01-16T13:02:10;9.15;;;2.22;;
30553;SDS011;17335;50.720;7.452;2024-01-16T13:04:37;7.30;;;1.80;;
30553;SDS011;17335;50.720;7.452;2024-01-16T13:07:04;5.10;;;1.70;;
30553;SDS011;17335;50.720;7.452;2024-01-16T13:09:31;6.22;;;2.10;;
30553;SDS011;17335;50.720;7.452;2024-01-16T13:11:58;6.45;;;2.03;;
30553;SDS011;17335;50.720;7.452;2024-01-16T13:14:25;3.45;;;1.75;;
30553;SDS011;17335;50.720;7.452;2024-01-16T13:16:52;6.50;;;1.98;;
30553;SDS011;17335;50.720;7.452;2024-01-16T13:19:23;5.45;;;2.00;;
30553;SDS011;17335;50.720;7.452;2024-01-16T13:21:50;11.55;;;1.65;;
30553;SDS011;17335;50.720;7.452;2024-01-16T13:24:17;4.18;;;1.90;;
30553;SDS011;17335;50.720;7.452;2024-01-16T13:26:47;3.72;;;1.65;;
30553;SDS011;17335;50.720;7.452;2024-01-16T13:29:14;8.45;;;2.00;;
30553;SDS011;17335;50.720;7.452;2024-01-16T13:31:41;7.50;;;2.38;;
30553;SDS011;17335;50.720;7.452;2024-01-16T13:34:08;5.65;;;2.00;;
30553;SDS011;17335;50.720;7.452;2024-01-16T13:36:35;9.35;;;1.83;;
30553;SDS011;17335;50.720;7.452;2024-01-16T13:39:22;6.78;;;2.88;;
30553;SDS011;17335;50.720;7.452;2024-01-16T13:41:48;7.55;;;2.20;;
30553;SDS011;17335;50.720;7.452;2024-01-16T13:44:15;9.15;;;2.78;;
30553;SDS011;17335;50.720;7.452;2024-01-16T13:46:42;7.55;;;2.03;;
30553;SDS011;17335;50.720;7.452;2024-01-16T13:49:26;6.63;;;2.00;;
30553;SDS011;17335;50.720;7.452;2024-01-16T13:51:53;3.92;;;1.92;;
30553;SDS011;17335;50.720;7.452;2024-01-16T13:54:20;4.72;;;1.98;;
30553;SDS011;17335;50.720;7.452;2024-01-16T13:56:46;3.70;;;1.90;;
30553;SDS011;17335;50.720;7.452;2024-01-16T13:59:31;3.63;;;1.70;;
30553;SDS011;17335;50.720;7.452;2024-01-16T14:01:59;5.97;;;2.50;;
30553;SDS011;17335;50.720;7.452;2024-01-16T14:04:25;6.90;;;2.20;;
30553;SDS011;17335;50.720;7.452;2024-01-16T14:06:51;4.95;;;2.30;;
30553;SDS011;17335;50.720;7.452;2024-01-16T14:09:38;5.38;;;2.30;;
30553;SDS011;17335;50.720;7.452;2024-01-16T14:12:04;11.20;;;2.10;;
30553;SDS011;17335;50.720;7.452;2024-01-16T14:14:34;7.10;;;2.10;;
30553;SDS011;17335;50.720;7.452;2024-01-16T14:17:02;9.98;;;2.55;;
30553;SDS011;17335;50.720;7.452;2024-01-16T14:19:28;7.82;;;2.33;;
30553;SDS011;17335;50.720;7.452;2024-01-16T14:21:57;6.07;;;1.98;;
30553;SDS011;17335;50.720;7.452;2024-01-16T14:24:23;6.90;;;1.98;;
30553;SDS011;17335;50.720;7.452;2024-01-16T14:26:50;4.97;;;2.17;;
30553;SDS011;17335;50.720;7.452;2024-01-16T14:29:17;3.88;;;2.05;;
30553;SDS011;17335;50.720;7.452;2024-01-16T14:31:44;3.53;;;1.92;;
30553;SDS011;17335;50.720;7.452;2024-01-16T14:34:15;7.03;;;2.35;;
30553;SDS011;17335;50.720;7.452;2024-01-16T14:36:41;5.63;;;2.33;;
30553;SDS011;17335;50.720;7.452;2024-01-16T14:39:08;6.85;;;2.47;;
30553;SDS011;17335;50.720;7.452;2024-01-16T14:41:39;5.20;;;2.45;;
30553;SDS011;17335;50.720;7.452;2024-01-16T14:44:08;5.70;;;2.00;;
30553;SDS011;17335;50.720;7.452;2024-01-16T14:46:36;5.47;;;2.58;;
30553;SDS011;17335;50.720;7.452;2024-01-16T14:49:02;5.25;;;2.10;;
30553;SDS011;17335;50.720;7.452;2024-01-16T14:51:29;8.82;;;3.10;;
30553;SDS011;17335;50.720;7.452;2024-01-16T14:53:56;9.70;;;3.53;;
30553;SDS011;17335;50.720;7.452;2024-01-16T14:56:22;5.93;;;2.60;;